createdAt,value
2024-04-30T05:00:58.701Z,14.20
2024-04-30T05:01:58.534Z,14.15
2024-04-30T05:02:58.467Z,14.12
2024-04-30T05:03:58.476Z,14.24
2024-04-30T05:04:58.517Z,14.22
2024-04-30T05:05:58.469Z,14.15
2024-04-30T05:07:00.024Z,14.25
2024-04-30T05:07:58.440Z,14.24
2024-04-30T05:08:58.447Z,14.25
2024-04-30T05:09:58.482Z,14.32
2024-04-30T05:10:58.394Z,14.21
2024-04-30T05:12:03.503Z,14.28
2024-04-30T05:12:58.341Z,14.32
2024-04-30T05:13:58.343Z,14.32
2024-04-30T05:14:58.339Z,14.29
2024-04-30T05:15:58.348Z,14.29
2024-04-30T05:16:58.375Z,14.33
2024-04-30T05:17:58.332Z,14.32
2024-04-30T05:18:58.271Z,14.33
2024-04-30T05:19:58.348Z,14.37
2024-04-30T05:20:58.247Z,14.33
2024-04-30T05:21:58.250Z,14.29
2024-04-30T05:23:03.313Z,14.46
2024-04-30T05:23:58.216Z,14.47
2024-04-30T05:24:58.203Z,14.47
2024-04-30T05:25:58.256Z,14.55
2024-04-30T05:26:58.213Z,14.47
2024-04-30T05:27:58.198Z,14.61
2024-04-30T05:28:58.184Z,14.65
2024-04-30T05:29:58.401Z,14.65
2024-04-30T05:30:58.130Z,14.68
2024-04-30T05:31:58.126Z,14.73
2024-04-30T05:32:58.208Z,14.77
2024-04-30T05:34:03.241Z,14.70
2024-04-30T05:34:58.130Z,14.69
2024-04-30T05:35:58.127Z,14.70
2024-04-30T05:36:58.131Z,14.77
2024-04-30T05:37:58.107Z,14.70
2024-04-30T05:39:01.127Z,14.75
2024-04-30T05:39:58.055Z,14.75
2024-04-30T05:40:58.048Z,14.75
2024-04-30T05:41:58.042Z,14.84
2024-04-30T05:42:58.035Z,14.84
2024-04-30T05:43:58.057Z,14.91
2024-04-30T05:45:03.012Z,15.03
2024-04-30T05:45:58.011Z,15.02
2024-04-30T05:46:58.026Z,15.02
2024-04-30T05:47:58.005Z,15.19
2024-04-30T05:48:57.989Z,15.27
2024-04-30T05:49:57.970Z,15.34
2024-04-30T05:50:57.922Z,15.23
2024-04-30T05:51:57.916Z,15.32
2024-04-30T05:52:57.909Z,15.41
2024-04-30T05:53:57.911Z,15.38
2024-04-30T05:54:57.926Z,15.49
2024-04-30T05:56:02.899Z,15.75
2024-04-30T05:56:57.894Z,16.01
2024-04-30T05:57:57.909Z,16.24
2024-04-30T05:58:57.830Z,16.28
2024-04-30T05:59:57.837Z,16.42
2024-04-30T06:00:57.881Z,16.45
2024-04-30T06:01:57.870Z,16.49
2024-04-30T06:02:59.090Z,16.63
2024-04-30T06:03:57.874Z,16.68
2024-04-30T06:04:57.860Z,16.73
2024-04-30T06:05:57.765Z,16.71
2024-04-30T06:07:02.832Z,16.75
2024-04-30T06:07:57.729Z,16.75
2024-04-30T06:08:57.738Z,16.68
2024-04-30T06:09:57.701Z,16.58
2024-04-30T06:10:57.785Z,16.45
2024-04-30T06:11:57.676Z,16.31
2024-04-30T06:12:57.685Z,16.33
2024-04-30T06:13:57.647Z,16.49
2024-04-30T06:14:57.656Z,16.57
2024-04-30T06:15:57.640Z,16.81
2024-04-30T06:16:57.615Z,16.81
2024-04-30T06:18:02.986Z,16.76
2024-04-30T06:18:57.691Z,16.79
2024-04-30T06:19:57.630Z,16.73
2024-04-30T06:20:57.571Z,16.75
2024-04-30T06:21:57.619Z,16.89
2024-04-30T06:22:57.545Z,17.00
2024-04-30T06:23:57.549Z,16.83
2024-04-30T06:24:57.522Z,16.88
2024-04-30T06:25:57.532Z,17.18
2024-04-30T06:26:57.500Z,17.36
2024-04-30T06:27:57.482Z,17.54
2024-04-30T06:29:02.497Z,17.84
2024-04-30T06:29:57.491Z,17.97
2024-04-30T06:30:57.489Z,18.00
2024-04-30T06:31:57.447Z,18.02
2024-04-30T06:32:57.508Z,17.86
2024-04-30T06:33:57.485Z,17.62
2024-04-30T06:34:57.453Z,17.59
2024-04-30T06:35:57.407Z,17.63
2024-04-30T06:36:57.441Z,17.56
2024-04-30T06:37:57.388Z,17.52
2024-04-30T06:38:57.364Z,17.49
2024-04-30T06:40:02.507Z,17.55
2024-04-30T06:40:57.429Z,17.56
2024-04-30T06:41:57.334Z,17.49
2024-04-30T06:42:57.340Z,17.58
2024-04-30T06:43:57.325Z,17.46
2024-04-30T06:44:57.295Z,17.28
2024-04-30T06:45:57.286Z,17.31
2024-04-30T06:46:57.268Z,17.26
2024-04-30T06:47:57.408Z,17.28
2024-04-30T06:48:57.254Z,17.41
2024-04-30T06:49:57.270Z,17.43
2024-04-30T06:51:02.257Z,17.46
2024-04-30T06:51:57.217Z,17.55
2024-04-30T06:52:57.226Z,17.66
2024-04-30T06:53:57.209Z,17.86
2024-04-30T06:54:57.173Z,17.77
2024-04-30T06:55:57.167Z,17.75
2024-04-30T06:56:57.157Z,17.52
2024-04-30T06:57:57.154Z,17.40
2024-04-30T06:58:57.157Z,17.54
2024-04-30T06:59:57.127Z,17.58
2024-04-30T07:00:57.137Z,17.59
2024-04-30T07:02:02.166Z,17.63
2024-04-30T07:02:57.133Z,17.70
2024-04-30T07:03:57.134Z,17.52
2024-04-30T07:04:57.122Z,17.52
2024-04-30T07:05:57.084Z,17.54
2024-04-30T07:06:57.067Z,17.46
2024-04-30T07:07:57.498Z,17.48
2024-04-30T07:08:57.041Z,17.49
2024-04-30T07:09:57.023Z,17.58
2024-04-30T07:10:59.806Z,17.51
2024-04-30T07:11:57.028Z,17.51
2024-04-30T07:13:02.156Z,17.64
2024-04-30T07:13:56.963Z,17.62
2024-04-30T07:14:56.986Z,17.55
2024-04-30T07:15:56.947Z,17.72
2024-04-30T07:17:03.188Z,17.62
2024-04-30T07:17:58.097Z,17.63
2024-04-30T07:18:56.909Z,17.66
2024-04-30T07:19:56.896Z,17.78
2024-04-30T07:20:56.935Z,17.64
2024-04-30T07:21:56.901Z,17.70
2024-04-30T07:22:56.894Z,17.68
2024-04-30T07:24:01.883Z,17.74
2024-04-30T07:24:56.851Z,17.96
2024-04-30T07:25:56.864Z,17.89
2024-04-30T07:26:56.848Z,17.87
2024-04-30T07:27:56.863Z,17.77
2024-04-30T07:28:56.793Z,17.72
2024-04-30T07:29:56.797Z,17.82
2024-04-30T07:30:56.794Z,17.82
2024-04-30T07:31:56.911Z,17.95
2024-04-30T07:32:56.820Z,18.17
2024-04-30T07:33:56.756Z,18.32
2024-04-30T07:35:01.880Z,18.39
2024-04-30T07:35:56.720Z,18.52
2024-04-30T07:36:56.735Z,18.62
2024-04-30T07:37:56.699Z,18.65
2024-04-30T07:38:56.692Z,18.51
2024-04-30T07:39:56.697Z,18.39
2024-04-30T07:40:56.664Z,18.30
2024-04-30T07:41:56.660Z,18.27
2024-04-30T07:42:56.639Z,18.25
2024-04-30T07:43:56.644Z,18.27
2024-04-30T07:44:56.623Z,18.37
2024-04-30T07:46:01.639Z,18.58
2024-04-30T07:46:56.620Z,18.52
2024-04-30T07:47:56.638Z,18.65
2024-04-30T07:48:56.592Z,18.75
2024-04-30T07:49:56.732Z,18.85
2024-04-30T07:50:56.540Z,19.07
2024-04-30T07:51:56.597Z,19.04
2024-04-30T07:52:56.548Z,18.99
2024-04-30T07:53:56.522Z,19.08
2024-04-30T07:54:59.309Z,19.14
2024-04-30T07:55:56.519Z,19.19
2024-04-30T07:57:01.533Z,19.32
2024-04-30T07:57:56.486Z,19.36
2024-04-30T07:58:56.824Z,19.40
2024-04-30T07:59:56.455Z,19.32
2024-04-30T08:00:56.504Z,19.32
2024-04-30T08:01:56.504Z,19.40
2024-04-30T08:02:56.524Z,19.56
2024-04-30T08:03:56.463Z,19.73
2024-04-30T08:04:56.390Z,20.03
2024-04-30T08:05:58.594Z,20.06
2024-04-30T08:06:56.441Z,20.16
2024-04-30T08:08:01.376Z,20.17
2024-04-30T08:08:56.439Z,20.35
2024-04-30T08:09:56.369Z,20.50
2024-04-30T08:10:56.404Z,20.36
2024-04-30T08:11:56.347Z,20.26
2024-04-30T08:13:01.476Z,20.17
2024-04-30T08:13:57.292Z,20.20
2024-04-30T08:15:01.313Z,19.92
2024-04-30T08:15:57.467Z,19.63
2024-04-30T08:16:56.359Z,19.50
2024-04-30T08:17:56.369Z,19.39
2024-04-30T08:19:01.260Z,19.43
2024-04-30T08:19:56.485Z,19.54
2024-04-30T08:20:56.247Z,19.66
2024-04-30T08:21:56.368Z,19.71
2024-04-30T08:22:56.188Z,19.73
2024-04-30T08:23:56.185Z,19.69
2024-04-30T08:24:56.287Z,19.77
2024-04-30T08:25:56.167Z,19.78
2024-04-30T08:26:56.146Z,19.87
2024-04-30T08:27:56.141Z,19.78
2024-04-30T08:28:56.120Z,19.86
2024-04-30T08:30:01.238Z,19.77
2024-04-30T08:30:56.136Z,19.88
2024-04-30T08:31:56.127Z,20.03
2024-04-30T08:32:56.109Z,20.21
2024-04-30T08:33:56.184Z,20.28
2024-04-30T08:34:56.085Z,20.31
2024-04-30T08:35:56.064Z,20.32
2024-04-30T08:36:56.222Z,20.33
2024-04-30T08:38:00.914Z,20.32
2024-04-30T08:38:55.994Z,20.50
2024-04-30T08:39:56.030Z,20.36
2024-04-30T08:41:01.002Z,20.35
2024-04-30T08:41:55.973Z,20.47
2024-04-30T08:42:55.961Z,20.47
2024-04-30T08:43:55.945Z,20.50
2024-04-30T08:44:57.879Z,20.48
2024-04-30T08:45:55.928Z,20.50
2024-04-30T08:46:55.997Z,20.50
2024-04-30T08:47:55.952Z,20.36
2024-04-30T08:48:55.917Z,20.52
2024-04-30T08:50:01.326Z,20.51
2024-04-30T08:50:55.959Z,20.51
2024-04-30T08:52:00.884Z,20.64
2024-04-30T08:52:55.894Z,20.72
2024-04-30T08:53:55.835Z,20.80
2024-04-30T08:54:55.848Z,20.89
2024-04-30T08:55:55.804Z,20.99
2024-04-30T08:56:55.789Z,21.09
2024-04-30T08:57:55.788Z,21.07
2024-04-30T08:58:55.803Z,20.94
2024-04-30T08:59:55.768Z,20.77
2024-04-30T09:00:55.849Z,20.85
2024-04-30T09:01:55.841Z,20.76
2024-04-30T09:03:00.808Z,20.70
2024-04-30T09:03:55.812Z,20.58
2024-04-30T09:04:55.751Z,20.52
2024-04-30T09:05:55.711Z,20.67
2024-04-30T09:06:55.701Z,20.69
2024-04-30T09:07:55.671Z,20.79
2024-04-30T09:08:55.665Z,21.06
2024-04-30T09:09:55.651Z,21.09
2024-04-30T09:10:55.704Z,21.10
2024-04-30T09:11:55.746Z,21.19
2024-04-30T09:12:55.648Z,21.12
2024-04-30T09:14:00.639Z,21.03
2024-04-30T09:14:55.633Z,21.10
2024-04-30T09:15:55.629Z,21.32
2024-04-30T09:16:55.685Z,21.34
2024-04-30T09:17:55.673Z,21.34
2024-04-30T09:18:55.580Z,21.21
2024-04-30T09:19:55.557Z,21.19
2024-04-30T09:20:59.187Z,21.14
2024-04-30T09:21:55.541Z,21.24
2024-04-30T09:22:55.543Z,21.09
2024-04-30T09:23:55.502Z,21.06
2024-04-30T09:25:00.511Z,21.22
2024-04-30T09:25:55.481Z,21.31
2024-04-30T09:26:55.454Z,21.42
2024-04-30T09:27:55.485Z,21.46
2024-04-30T09:28:55.470Z,21.50
2024-04-30T09:29:55.433Z,21.53
2024-04-30T09:30:55.436Z,21.62
2024-04-30T09:31:55.417Z,21.92
2024-04-30T09:32:55.499Z,22.06
2024-04-30T09:33:55.426Z,22.21
2024-04-30T09:34:55.384Z,22.24
2024-04-30T09:36:04.178Z,22.31
2024-04-30T09:36:56.383Z,22.55
2024-04-30T09:37:55.342Z,22.39
2024-04-30T09:38:55.372Z,22.25
2024-04-30T09:39:55.309Z,22.31
2024-04-30T09:40:55.306Z,22.28
2024-04-30T09:41:55.327Z,22.37
2024-04-30T09:42:55.297Z,22.45
2024-04-30T09:43:55.297Z,22.58
2024-04-30T09:44:55.479Z,22.62
2024-04-30T09:45:55.283Z,22.67
2024-04-30T09:47:00.303Z,22.76
2024-04-30T09:47:55.292Z,22.95
2024-04-30T09:48:55.211Z,23.23
2024-04-30T09:49:55.362Z,23.48
2024-04-30T09:50:55.199Z,23.60
2024-04-30T09:51:55.207Z,23.69
2024-04-30T09:52:55.198Z,23.68
2024-04-30T09:53:55.208Z,23.40
2024-04-30T09:54:55.176Z,23.31
2024-04-30T09:55:55.147Z,23.39
2024-04-30T09:56:55.183Z,23.50
2024-04-30T09:58:00.158Z,23.66
2024-04-30T09:58:55.103Z,23.95
2024-04-30T09:59:55.156Z,24.25
2024-04-30T10:00:55.116Z,24.32
2024-04-30T10:01:55.250Z,24.47
2024-04-30T10:02:55.084Z,24.37
2024-04-30T10:03:55.098Z,24.09
2024-04-30T10:04:55.171Z,24.10
2024-04-30T10:05:55.033Z,23.90
2024-04-30T10:06:55.040Z,23.87
2024-04-30T10:07:55.027Z,23.58
2024-04-30T10:09:00.042Z,23.51
2024-04-30T10:09:55.014Z,23.42
2024-04-30T10:10:55.123Z,23.43
2024-04-30T10:11:54.964Z,23.36
2024-04-30T10:12:54.947Z,23.50
2024-04-30T10:13:55.059Z,23.40
2024-04-30T10:14:54.933Z,23.38
2024-04-30T10:15:54.915Z,23.53
2024-04-30T10:16:54.972Z,23.65
2024-04-30T10:17:54.898Z,23.76
2024-04-30T10:18:54.887Z,23.83
2024-04-30T10:19:54.871Z,23.93
2024-04-30T10:20:54.886Z,23.98
2024-04-30T10:21:59.877Z,24.08
2024-04-30T10:22:54.876Z,23.95
2024-04-30T10:23:54.849Z,23.78
2024-04-30T10:24:54.840Z,23.66
2024-04-30T10:25:54.808Z,23.70
2024-04-30T10:26:54.829Z,23.78
2024-04-30T10:27:54.819Z,23.73
2024-04-30T10:28:54.784Z,23.83
2024-04-30T10:29:54.766Z,23.83
2024-04-30T10:30:54.752Z,23.83
2024-04-30T10:31:57.001Z,23.91
2024-04-30T10:32:54.862Z,23.94
2024-04-30T10:33:54.749Z,24.10
2024-04-30T10:34:59.764Z,24.13
2024-04-30T10:35:54.725Z,24.32
2024-04-30T10:36:54.724Z,24.53
2024-04-30T10:37:54.725Z,24.88
2024-04-30T10:38:54.656Z,24.95
2024-04-30T10:39:54.654Z,24.95
2024-04-30T10:40:54.652Z,24.88
2024-04-30T10:41:54.645Z,24.73
2024-04-30T10:42:54.622Z,24.73
2024-04-30T10:43:56.731Z,24.40
2024-04-30T10:44:54.594Z,24.62
2024-04-30T10:45:54.621Z,24.83
2024-04-30T10:46:54.570Z,24.78
2024-04-30T10:47:59.725Z,24.62
2024-04-30T10:48:54.610Z,24.47
2024-04-30T10:50:01.063Z,24.45
2024-04-30T10:50:54.530Z,24.46
2024-04-30T10:51:54.530Z,24.47
2024-04-30T10:52:54.514Z,24.50
2024-04-30T10:53:54.510Z,24.67
2024-04-30T10:54:54.520Z,24.76
2024-04-30T10:55:56.966Z,24.76
2024-04-30T10:56:54.466Z,24.88
2024-04-30T10:57:54.464Z,25.03
2024-04-30T10:58:54.477Z,25.06
2024-04-30T10:59:54.435Z,25.25
2024-04-30T11:00:59.493Z,25.21
2024-04-30T11:01:54.438Z,25.28
2024-04-30T11:02:54.440Z,25.27
2024-04-30T11:03:54.382Z,25.21
2024-04-30T11:04:54.449Z,25.05
2024-04-30T11:05:54.366Z,24.98
2024-04-30T11:06:54.406Z,24.90
2024-04-30T11:07:54.345Z,24.77
2024-04-30T11:08:54.357Z,24.60
2024-04-30T11:09:54.335Z,24.47
2024-04-30T11:10:54.387Z,24.49
2024-04-30T11:11:54.285Z,24.46
2024-04-30T11:12:54.277Z,24.49
2024-04-30T11:14:00.876Z,24.68
2024-04-30T11:14:54.282Z,24.68
2024-04-30T11:16:03.518Z,24.85
2024-04-30T11:16:54.280Z,24.96
2024-04-30T11:17:54.307Z,24.90
2024-04-30T11:18:54.265Z,25.02
2024-04-30T11:19:54.254Z,25.02
2024-04-30T11:20:54.206Z,25.02
2024-04-30T11:21:54.225Z,25.14
2024-04-30T11:22:54.206Z,25.23
2024-04-30T11:23:54.174Z,25.36
2024-04-30T11:24:54.180Z,25.55
2024-04-30T11:25:54.166Z,25.40
2024-04-30T11:26:59.167Z,25.38
2024-04-30T11:27:54.152Z,25.36
2024-04-30T11:29:08.723Z,25.51
2024-04-30T11:29:54.091Z,25.51
2024-04-30T11:30:54.120Z,25.54
2024-04-30T11:31:54.098Z,25.47
2024-04-30T11:32:54.197Z,25.52
2024-04-30T11:33:54.063Z,25.36
2024-04-30T11:34:54.062Z,25.30
2024-04-30T11:35:54.022Z,25.05
2024-04-30T11:36:54.048Z,25.00
2024-04-30T11:37:54.116Z,24.95
2024-04-30T11:38:53.985Z,24.93
2024-04-30T11:39:59.000Z,24.95
2024-04-30T11:40:53.992Z,25.02
2024-04-30T11:42:01.813Z,25.15
2024-04-30T11:42:54.980Z,25.28
2024-04-30T11:43:53.943Z,25.33
2024-04-30T11:44:53.936Z,25.36
2024-04-30T11:45:54.084Z,25.51
2024-04-30T11:46:53.923Z,25.76
2024-04-30T11:47:53.966Z,25.88
2024-04-30T11:48:53.942Z,26.13
2024-04-30T11:49:53.872Z,26.48
2024-04-30T11:50:53.858Z,26.76
2024-04-30T11:51:53.839Z,26.97
2024-04-30T11:52:59.005Z,26.92
2024-04-30T11:53:53.876Z,26.87
2024-04-30T11:54:53.841Z,26.76
2024-04-30T11:55:53.807Z,26.72
2024-04-30T11:56:53.797Z,26.51
2024-04-30T11:57:53.794Z,26.55
2024-04-30T11:58:53.791Z,26.58
2024-04-30T11:59:53.784Z,26.72
2024-04-30T12:00:53.749Z,26.94
2024-04-30T12:01:53.877Z,27.10
2024-04-30T12:02:53.780Z,27.54
2024-04-30T12:03:53.737Z,28.00
2024-04-30T12:04:53.847Z,28.46
2024-04-30T12:05:58.734Z,28.41
2024-04-30T12:06:53.732Z,28.07
2024-04-30T12:07:53.759Z,27.88
2024-04-30T12:08:53.674Z,27.74
2024-04-30T12:09:53.651Z,27.49
2024-04-30T12:10:53.810Z,27.43
2024-04-30T12:11:53.630Z,27.60
2024-04-30T12:12:53.628Z,27.78
2024-04-30T12:13:53.659Z,28.24
2024-04-30T12:14:53.601Z,28.80
2024-04-30T12:15:53.608Z,29.31
2024-04-30T12:16:53.675Z,29.57
2024-04-30T12:17:53.797Z,29.64
2024-04-30T12:18:58.609Z,30.02
2024-04-30T12:19:53.582Z,30.13
2024-04-30T12:20:53.552Z,30.37
2024-04-30T12:21:53.529Z,30.24
2024-04-30T12:22:53.573Z,30.22
2024-04-30T12:23:53.522Z,30.05
2024-04-30T12:24:53.485Z,30.19
2024-04-30T12:25:53.476Z,30.51
2024-04-30T12:26:53.465Z,30.77
2024-04-30T12:27:53.473Z,31.09
2024-04-30T12:28:53.474Z,31.10
2024-04-30T12:29:58.475Z,31.48
2024-04-30T12:30:53.463Z,31.35
2024-04-30T12:31:53.552Z,30.95
2024-04-30T12:32:53.432Z,30.61
2024-04-30T12:33:53.428Z,31.01
2024-04-30T12:34:53.409Z,31.04
2024-04-30T12:35:53.373Z,31.21
2024-04-30T12:36:53.375Z,31.70
2024-04-30T12:37:53.394Z,31.78
2024-04-30T12:38:53.353Z,31.44
2024-04-30T12:39:53.340Z,31.02
2024-04-30T12:40:58.349Z,30.80
2024-04-30T12:41:53.328Z,30.58
2024-04-30T12:42:53.321Z,30.10
2024-04-30T12:43:53.300Z,29.92
2024-04-30T12:44:53.279Z,29.65
2024-04-30T12:45:53.285Z,29.19
2024-04-30T12:46:53.345Z,29.04
2024-04-30T12:47:53.330Z,29.00
2024-04-30T12:48:53.239Z,28.81
2024-04-30T12:49:53.284Z,28.58
2024-04-30T12:50:53.264Z,28.58
2024-04-30T12:51:58.346Z,28.39
2024-04-30T12:52:53.244Z,28.24
2024-04-30T12:53:53.184Z,28.11
2024-04-30T12:54:53.197Z,27.99
2024-04-30T12:55:53.229Z,27.87
2024-04-30T12:56:53.186Z,27.75
2024-04-30T12:57:53.137Z,27.47
2024-04-30T12:58:53.279Z,27.21
2024-04-30T12:59:53.117Z,27.04
2024-04-30T13:00:53.283Z,26.94
2024-04-30T13:01:53.179Z,26.87
2024-04-30T13:02:58.174Z,26.85
2024-04-30T13:03:53.118Z,26.80
2024-04-30T13:04:53.171Z,26.80
2024-04-30T13:05:53.066Z,26.60
2024-04-30T13:06:53.051Z,26.44
2024-04-30T13:07:53.036Z,26.44
2024-04-30T13:08:53.060Z,26.43
2024-04-30T13:09:53.022Z,26.44
2024-04-30T13:10:53.189Z,26.44
2024-04-30T13:11:53.019Z,26.47
2024-04-30T13:12:52.989Z,26.51
2024-04-30T13:13:52.991Z,26.40
2024-04-30T13:14:52.953Z,26.39
2024-04-30T13:15:57.995Z,26.30
2024-04-30T13:16:52.994Z,26.13
2024-04-30T13:17:53.007Z,26.12
2024-04-30T13:18:52.938Z,26.13
2024-04-30T13:19:53.009Z,26.23
2024-04-30T13:20:52.933Z,26.21
2024-04-30T13:21:52.866Z,26.30
2024-04-30T13:22:52.890Z,26.21
2024-04-30T13:23:52.846Z,26.32
2024-04-30T13:24:52.868Z,26.18
2024-04-30T13:25:52.866Z,26.06
2024-04-30T13:26:52.808Z,26.07
2024-04-30T13:27:52.818Z,26.12
2024-04-30T13:28:57.815Z,26.21
2024-04-30T13:29:52.837Z,26.28
2024-04-30T13:30:52.827Z,26.45
2024-04-30T13:31:52.786Z,26.48
2024-04-30T13:32:52.883Z,26.45
2024-04-30T13:33:52.762Z,26.50
2024-04-30T13:34:52.740Z,26.44
2024-04-30T13:35:52.715Z,26.57
2024-04-30T13:36:52.751Z,26.58
2024-04-30T13:37:52.726Z,26.66
2024-04-30T13:38:52.680Z,26.50
2024-04-30T13:39:52.693Z,26.63
2024-04-30T13:40:52.699Z,26.58
2024-04-30T13:41:57.702Z,26.43
2024-04-30T13:42:52.684Z,26.32
2024-04-30T13:43:52.698Z,26.25
2024-04-30T13:44:52.636Z,26.23
2024-04-30T13:45:54.491Z,26.18
2024-04-30T13:46:52.637Z,26.26
2024-04-30T13:47:52.660Z,26.23
2024-04-30T13:48:52.642Z,26.29
2024-04-30T13:49:52.611Z,26.32
2024-04-30T13:50:52.579Z,26.33
2024-04-30T13:51:52.532Z,26.32
2024-04-30T13:52:52.568Z,26.30
2024-04-30T13:53:52.519Z,26.29
2024-04-30T13:54:57.533Z,26.23
2024-04-30T13:55:52.589Z,26.35
2024-04-30T13:56:52.521Z,26.29
2024-04-30T13:57:52.514Z,26.35
2024-04-30T13:58:52.449Z,26.36
2024-04-30T13:59:52.443Z,26.30
2024-04-30T14:00:52.462Z,26.40
2024-04-30T14:01:52.532Z,26.51
2024-04-30T14:02:52.439Z,26.55
2024-04-30T14:03:52.746Z,26.51
2024-04-30T14:04:52.486Z,26.58
2024-04-30T14:05:52.437Z,26.65
2024-04-30T14:06:52.381Z,26.63
2024-04-30T14:07:57.373Z,26.66
2024-04-30T14:08:52.379Z,26.60
2024-04-30T14:09:52.360Z,26.65
2024-04-30T14:10:52.449Z,26.63
2024-04-30T14:11:52.344Z,26.60
2024-04-30T14:12:52.304Z,26.65
2024-04-30T14:13:52.313Z,26.63
2024-04-30T14:14:52.300Z,26.63
2024-04-30T14:15:52.282Z,26.66
2024-04-30T14:16:52.280Z,26.58
2024-04-30T14:17:52.277Z,26.58
2024-04-30T14:18:52.254Z,26.57
2024-04-30T14:19:52.389Z,26.52
2024-04-30T14:20:57.243Z,26.62
2024-04-30T14:21:52.194Z,26.48
2024-04-30T14:22:52.224Z,26.60
2024-04-30T14:23:52.190Z,26.52
2024-04-30T14:24:52.201Z,26.67
2024-04-30T14:25:52.200Z,26.66
2024-04-30T14:26:52.158Z,26.75
2024-04-30T14:27:52.128Z,26.67
2024-04-30T14:28:52.151Z,26.67
2024-04-30T14:29:52.133Z,26.82
2024-04-30T14:30:52.096Z,26.72
2024-04-30T14:31:57.167Z,26.63
2024-04-30T14:32:52.128Z,26.54
2024-04-30T14:33:52.093Z,26.70
2024-04-30T14:34:52.121Z,26.57
2024-04-30T14:35:52.170Z,26.67
2024-04-30T14:36:52.097Z,26.63
2024-04-30T14:37:52.083Z,26.72
2024-04-30T14:38:52.003Z,26.72
2024-04-30T14:39:51.999Z,26.69
2024-04-30T14:40:52.025Z,26.65
2024-04-30T14:41:52.011Z,26.60
2024-04-30T14:42:51.986Z,26.66
2024-04-30T14:43:51.951Z,26.63
2024-04-30T14:44:56.960Z,26.67
2024-04-30T14:45:51.954Z,26.65
2024-04-30T14:46:51.992Z,26.60
2024-04-30T14:47:52.038Z,26.66
2024-04-30T14:48:52.076Z,26.72
2024-04-30T14:49:51.941Z,26.60
2024-04-30T14:50:51.883Z,26.70
2024-04-30T14:51:51.856Z,26.69
2024-04-30T14:52:51.929Z,26.69
2024-04-30T14:53:51.846Z,26.63
2024-04-30T14:54:51.855Z,26.65
2024-04-30T14:55:51.818Z,26.63
2024-04-30T14:56:54.061Z,26.72
2024-04-30T14:57:56.810Z,26.75
2024-04-30T14:58:51.818Z,26.82
2024-04-30T14:59:51.782Z,26.81
2024-04-30T15:00:51.886Z,26.76
2024-04-30T15:01:51.942Z,26.75
2024-04-30T15:02:51.806Z,26.87
2024-04-30T15:03:51.774Z,26.87
2024-04-30T15:04:51.754Z,26.94
2024-04-30T15:05:51.718Z,26.88
2024-04-30T15:06:51.718Z,26.88
2024-04-30T15:07:51.730Z,26.84
2024-04-30T15:08:56.702Z,26.94
2024-04-30T15:09:51.671Z,26.92
2024-04-30T15:10:51.714Z,26.87
2024-04-30T15:11:51.729Z,26.89
2024-04-30T15:12:51.653Z,26.92
2024-04-30T15:13:51.642Z,26.89
2024-04-30T15:14:51.600Z,26.85
2024-04-30T15:15:51.598Z,26.95
2024-04-30T15:16:51.909Z,26.94
2024-04-30T15:17:51.680Z,26.94
2024-04-30T15:18:51.565Z,26.89
2024-04-30T15:19:56.592Z,26.89
2024-04-30T15:20:51.546Z,26.94
2024-04-30T15:21:51.564Z,26.92
2024-04-30T15:22:51.651Z,26.95
2024-04-30T15:23:51.506Z,26.95
2024-04-30T15:24:51.516Z,26.88
2024-04-30T15:25:51.529Z,26.89
2024-04-30T15:26:51.464Z,26.88
2024-04-30T15:27:51.528Z,26.95
2024-04-30T15:28:51.538Z,26.92
2024-04-30T15:29:51.434Z,26.97
2024-04-30T15:30:56.446Z,26.91
2024-04-30T15:31:51.452Z,26.92
2024-04-30T15:32:51.465Z,26.88
2024-04-30T15:33:51.489Z,26.85
2024-04-30T15:34:51.419Z,26.91
2024-04-30T15:35:51.365Z,26.81
2024-04-30T15:36:51.344Z,26.76
2024-04-30T15:37:51.368Z,26.82
2024-04-30T15:38:51.346Z,26.81
2024-04-30T15:39:51.336Z,26.73
2024-04-30T15:40:51.375Z,26.80
2024-04-30T15:41:51.315Z,26.77
2024-04-30T15:42:51.283Z,26.82
2024-04-30T15:43:56.293Z,26.88
2024-04-30T15:44:51.280Z,26.91
2024-04-30T15:45:51.252Z,26.85
2024-04-30T15:46:51.293Z,26.89
2024-04-30T15:47:51.338Z,26.88
2024-04-30T15:48:51.360Z,26.92
2024-04-30T15:49:51.231Z,26.92
2024-04-30T15:50:51.232Z,26.92
2024-04-30T15:51:51.184Z,26.85
2024-04-30T15:52:51.237Z,26.89
2024-04-30T15:53:51.158Z,26.89
2024-04-30T15:54:56.173Z,26.85
2024-04-30T15:56:00.844Z,26.89
2024-04-30T15:56:58.320Z,26.89
2024-04-30T15:57:52.128Z,26.91
2024-04-30T15:58:51.148Z,26.80
2024-04-30T15:59:51.098Z,26.85
2024-04-30T16:00:51.127Z,26.88
2024-04-30T16:01:51.185Z,26.88
2024-04-30T16:02:51.142Z,26.89
2024-04-30T16:03:51.147Z,26.95
2024-04-30T16:04:51.086Z,26.91
2024-04-30T16:05:56.050Z,26.89
2024-04-30T16:06:51.015Z,26.82
2024-04-30T16:07:51.053Z,26.85
2024-04-30T16:08:51.043Z,26.94
2024-04-30T16:09:50.986Z,26.97
2024-04-30T16:10:51.045Z,26.92
2024-04-30T16:11:51.031Z,26.97
2024-04-30T16:12:51.167Z,26.89
2024-04-30T16:13:51.010Z,26.88
2024-04-30T16:14:50.971Z,26.95
2024-04-30T16:15:54.855Z,26.89
2024-04-30T16:16:56.036Z,26.94
2024-04-30T16:17:52.231Z,26.91
2024-04-30T16:18:50.899Z,26.85
2024-04-30T16:19:50.956Z,26.75
2024-04-30T16:20:50.864Z,26.87
2024-04-30T16:21:50.857Z,26.69
2024-04-30T16:22:50.861Z,26.72
2024-04-30T16:23:50.819Z,26.72
2024-04-30T16:24:50.865Z,26.76
2024-04-30T16:25:50.928Z,26.66
2024-04-30T16:26:50.796Z,26.62
2024-04-30T16:27:55.835Z,26.60
2024-04-30T16:28:50.956Z,26.58
2024-04-30T16:29:50.812Z,26.52
2024-04-30T16:30:50.755Z,26.65
2024-04-30T16:31:50.761Z,26.58
2024-04-30T16:32:50.886Z,26.58
2024-04-30T16:33:50.836Z,26.52
2024-04-30T16:34:50.706Z,26.62
2024-04-30T16:35:50.704Z,26.66
2024-04-30T16:36:50.762Z,26.57
2024-04-30T16:37:50.677Z,26.57
2024-04-30T16:38:55.734Z,26.58
2024-04-30T16:39:50.731Z,26.60
2024-04-30T16:40:50.628Z,26.65
2024-04-30T16:41:50.628Z,26.70
2024-04-30T16:42:50.612Z,26.76
2024-04-30T16:43:50.620Z,26.70
2024-04-30T16:44:53.364Z,26.67
2024-04-30T16:45:51.662Z,26.70
2024-04-30T16:46:50.566Z,26.70
2024-04-30T16:47:50.645Z,26.73
2024-04-30T16:48:50.608Z,26.73
2024-04-30T16:49:55.607Z,26.63
2024-04-30T16:50:50.536Z,26.65
2024-04-30T16:51:50.605Z,26.60
2024-04-30T16:52:50.490Z,26.60
2024-04-30T16:53:50.482Z,26.63
2024-04-30T16:54:50.624Z,26.66
2024-04-30T16:55:50.517Z,26.60
2024-04-30T16:56:50.468Z,26.62
2024-04-30T16:57:50.518Z,26.55
2024-04-30T16:58:50.441Z,26.62
2024-04-30T16:59:50.437Z,26.52
2024-04-30T17:00:55.527Z,26.51
2024-04-30T17:01:50.397Z,26.37
2024-04-30T17:02:50.435Z,26.45
2024-04-30T17:03:50.493Z,26.40
2024-04-30T17:04:50.456Z,26.37
2024-04-30T17:05:50.375Z,26.35
2024-04-30T17:06:50.492Z,26.37
2024-04-30T17:07:50.329Z,26.37
2024-04-30T17:08:50.355Z,26.32
2024-04-30T17:09:50.398Z,26.29
2024-04-30T17:10:50.324Z,26.28
2024-04-30T17:11:55.300Z,26.32
2024-04-30T17:12:50.413Z,26.21
2024-04-30T17:13:50.261Z,26.18
2024-04-30T17:14:50.259Z,26.15
2024-04-30T17:15:50.427Z,26.17
2024-04-30T17:16:50.290Z,26.06
2024-04-30T17:17:50.242Z,26.09
2024-04-30T17:18:50.553Z,26.13
2024-04-30T17:19:50.212Z,26.10
2024-04-30T17:20:50.186Z,26.12
2024-04-30T17:21:50.271Z,26.01
2024-04-30T17:22:55.178Z,26.02
2024-04-30T17:23:50.160Z,25.94
2024-04-30T17:24:50.293Z,25.98
2024-04-30T17:25:50.147Z,25.88
2024-04-30T17:26:50.148Z,25.97
2024-04-30T17:27:50.155Z,25.88
2024-04-30T17:28:50.116Z,25.97
2024-04-30T17:29:50.119Z,25.87
2024-04-30T17:30:50.246Z,25.90
2024-04-30T17:31:50.155Z,25.79
2024-04-30T17:32:50.115Z,25.82
2024-04-30T17:33:55.172Z,25.82
2024-04-30T17:34:50.048Z,25.82
2024-04-30T17:35:50.038Z,25.79
2024-04-30T17:36:50.760Z,25.79
2024-04-30T17:37:50.011Z,25.76
2024-04-30T17:38:50.045Z,25.73
2024-04-30T17:39:50.042Z,25.67
2024-04-30T17:40:49.987Z,25.69
2024-04-30T17:41:49.985Z,25.67
2024-04-30T17:42:49.983Z,25.58
2024-04-30T17:43:49.956Z,25.64
2024-04-30T17:44:54.977Z,25.55
2024-04-30T17:45:49.965Z,25.58
2024-04-30T17:46:49.905Z,25.57
2024-04-30T17:47:49.992Z,25.55
2024-04-30T17:48:49.937Z,25.52
2024-04-30T17:49:49.902Z,25.51
2024-04-30T17:50:49.890Z,25.43
2024-04-30T17:51:49.917Z,25.40
2024-04-30T17:52:49.829Z,25.43